sensor_id;sensor_type;location;lat;lon;timestamp;P1;durP1;ratioP1;P2;durP2;ratioP2
70444;SDS011;57902;49.638;11.070;2022-08-21T00:01:47;11.20;;;4.05;;
70444;SDS011;57902;49.638;11.070;2022-08-21T00:04:14;9.05;;;4.05;;
70444;SDS011;57902;49.638;11.070;2022-08-21T00:06:47;9.93;;;3.80;;
70444;SDS011;57902;49.638;11.070;2022-08-21T00:09:15;8.73;;;3.88;;
70444;SDS011;57902;49.638;11.070;2022-08-21T00:11:42;13.27;;;4.25;;
70444;SDS011;57902;49.638;11.070;2022-08-21T00:14:09;19.27;;;4.47;;
70444;SDS011;57902;49.638;11.070;2022-08-21T00:16:37;10.52;;;4.70;;
70444;SDS011;57902;49.638;11.070;2022-08-21T00:19:05;9.68;;;4.13;;
70444;SDS011;57902;49.638;11.070;2022-08-21T00:21:33;11.30;;;4.85;;
70444;SDS011;57902;49.638;11.070;2022-08-21T00:24:01;16.33;;;4.80;;
70444;SDS011;57902;49.638;11.070;2022-08-21T00:26:27;14.32;;;4.82;;
70444;SDS011;57902;49.638;11.070;2022-08-21T00:28:54;11.95;;;5.20;;
70444;SDS011;57902;49.638;11.070;2022-08-21T00:31:21;9.05;;;4.63;;
70444;SDS011;57902;49.638;11.070;2022-08-21T00:33:47;11.32;;;4.20;;
70444;SDS011;57902;49.638;11.070;2022-08-21T00:36:14;12.07;;;4.93;;
70444;SDS011;57902;49.638;11.070;2022-08-21T00:38:40;12.88;;;5.32;;
70444;SDS011;57902;49.638;11.070;2022-08-21T00:41:08;11.45;;;5.40;;
70444;SDS011;57902;49.638;11.070;2022-08-21T00:43:55;9.68;;;5.30;;
70444;SDS011;57902;49.638;11.070;2022-08-21T00:46:22;13.98;;;5.68;;
70444;SDS011;57902;49.638;11.070;2022-08-21T00:48:53;11.73;;;5.22;;
70444;SDS011;57902;49.638;11.070;2022-08-21T00:51:28;12.52;;;5.40;;
70444;SDS011;57902;49.638;11.070;2022-08-21T00:54:04;10.65;;;4.85;;
70444;SDS011;57902;49.638;11.070;2022-08-21T00:56:44;9.32;;;4.40;;
70444;SDS011;57902;49.638;11.070;2022-08-21T00:59:13;8.45;;;3.90;;
70444;SDS011;57902;49.638;11.070;2022-08-21T01:01:41;11.48;;;3.95;;
70444;SDS011;57902;49.638;11.070;2022-08-21T01:04:07;8.52;;;3.80;;
70444;SDS011;57902;49.638;11.070;2022-08-21T01:06:33;8.45;;;4.00;;
70444;SDS011;57902;49.638;11.070;2022-08-21T01:09:01;10.65;;;4.20;;
70444;SDS011;57902;49.638;11.070;2022-08-21T01:11:28;7.90;;;3.88;;
70444;SDS011;57902;49.638;11.070;2022-08-21T01:13:55;8.70;;;3.83;;
70444;SDS011;57902;49.638;11.070;2022-08-21T01:16:22;26.50;;;4.88;;
70444;SDS011;57902;49.638;11.070;2022-08-21T01:18:49;7.63;;;3.63;;
70444;SDS011;57902;49.638;11.070;2022-08-21T01:23:46;9.05;;;3.85;;
70444;SDS011;57902;49.638;11.070;2022-08-21T01:26:14;7.07;;;3.30;;
70444;SDS011;57902;49.638;11.070;2022-08-21T01:28:52;12.00;;;3.25;;
70444;SDS011;57902;49.638;11.070;2022-08-21T01:31:39;7.40;;;4.05;;
70444;SDS011;57902;49.638;11.070;2022-08-21T01:34:06;10.10;;;3.55;;
70444;SDS011;57902;49.638;11.070;2022-08-21T01:36:34;11.15;;;3.80;;
70444;SDS011;57902;49.638;11.070;2022-08-21T01:39:01;12.43;;;3.92;;
70444;SDS011;57902;49.638;11.070;2022-08-21T01:41:30;10.30;;;3.60;;
70444;SDS011;57902;49.638;11.070;2022-08-21T01:43:56;9.05;;;4.13;;
70444;SDS011;57902;49.638;11.070;2022-08-21T01:46:23;13.88;;;4.25;;
70444;SDS011;57902;49.638;11.070;2022-08-21T01:48:49;9.05;;;4.53;;
70444;SDS011;57902;49.638;11.070;2022-08-21T01:51:16;11.25;;;4.22;;
70444;SDS011;57902;49.638;11.070;2022-08-21T01:53:43;8.00;;;3.78;;
70444;SDS011;57902;49.638;11.070;2022-08-21T01:56:11;12.85;;;4.40;;
70444;SDS011;57902;49.638;11.070;2022-08-21T01:58:41;17.85;;;4.38;;
70444;SDS011;57902;49.638;11.070;2022-08-21T02:01:09;15.70;;;4.53;;
70444;SDS011;57902;49.638;11.070;2022-08-21T02:03:37;12.30;;;4.60;;
70444;SDS011;57902;49.638;11.070;2022-08-21T02:06:04;12.57;;;3.58;;
70444;SDS011;57902;49.638;11.070;2022-08-21T02:08:33;10.93;;;3.67;;
70444;SDS011;57902;49.638;11.070;2022-08-21T02:11:00;7.97;;;3.95;;
70444;SDS011;57902;49.638;11.070;2022-08-21T02:13:26;9.20;;;4.07;;
70444;SDS011;57902;49.638;11.070;2022-08-21T02:15:53;11.65;;;4.35;;
70444;SDS011;57902;49.638;11.070;2022-08-21T02:18:19;9.02;;;4.50;;
70444;SDS011;57902;49.638;11.070;2022-08-21T02:20:47;8.38;;;3.88;;
70444;SDS011;57902;49.638;11.070;2022-08-21T02:23:21;7.25;;;3.80;;
70444;SDS011;57902;49.638;11.070;2022-08-21T02:25:52;6.93;;;3.63;;
70444;SDS011;57902;49.638;11.070;2022-08-21T02:28:30;8.35;;;3.60;;
70444;SDS011;57902;49.638;11.070;2022-08-21T02:30:57;8.07;;;3.78;;
70444;SDS011;57902;49.638;11.070;2022-08-21T02:33:24;7.57;;;4.10;;
70444;SDS011;57902;49.638;11.070;2022-08-21T02:35:52;9.55;;;3.88;;
70444;SDS011;57902;49.638;11.070;2022-08-21T02:38:21;7.32;;;3.65;;
70444;SDS011;57902;49.638;11.070;2022-08-21T02:40:50;7.13;;;3.47;;
70444;SDS011;57902;49.638;11.070;2022-08-21T02:43:18;7.15;;;3.50;;
70444;SDS011;57902;49.638;11.070;2022-08-21T02:45:47;7.32;;;3.53;;
70444;SDS011;57902;49.638;11.070;2022-08-21T02:48:16;6.75;;;3.30;;
70444;SDS011;57902;49.638;11.070;2022-08-21T02:50:47;9.73;;;3.70;;
70444;SDS011;57902;49.638;11.070;2022-08-21T02:53:17;6.65;;;3.30;;
70444;SDS011;57902;49.638;11.070;2022-08-21T02:55:45;6.47;;;3.47;;
70444;SDS011;57902;49.638;11.070;2022-08-21T02:58:14;7.25;;;3.40;;
70444;SDS011;57902;49.638;11.070;2022-08-21T03:00:45;12.23;;;3.65;;
70444;SDS011;57902;49.638;11.070;2022-08-21T03:03:11;6.40;;;3.28;;
70444;SDS011;57902;49.638;11.070;2022-08-21T03:05:40;6.43;;;3.20;;
70444;SDS011;57902;49.638;11.070;2022-08-21T03:08:08;7.43;;;3.45;;
70444;SDS011;57902;49.638;11.070;2022-08-21T03:10:41;8.43;;;3.33;;
70444;SDS011;57902;49.638;11.070;2022-08-21T03:13:10;7.47;;;3.58;;
70444;SDS011;57902;49.638;11.070;2022-08-21T03:15:37;8.88;;;3.75;;
70444;SDS011;57902;49.638;11.070;2022-08-21T03:18:04;8.10;;;3.67;;
70444;SDS011;57902;49.638;11.070;2022-08-21T03:20:31;7.50;;;3.78;;
70444;SDS011;57902;49.638;11.070;2022-08-21T03:22:58;10.25;;;4.35;;
70444;SDS011;57902;49.638;11.070;2022-08-21T03:25:26;8.27;;;4.20;;
70444;SDS011;57902;49.638;11.070;2022-08-21T03:28:07;9.73;;;4.28;;
70444;SDS011;57902;49.638;11.070;2022-08-21T03:30:43;10.75;;;4.70;;
70444;SDS011;57902;49.638;11.070;2022-08-21T03:33:12;8.27;;;4.53;;
70444;SDS011;57902;49.638;11.070;2022-08-21T03:35:41;10.85;;;5.25;;
70444;SDS011;57902;49.638;11.070;2022-08-21T03:38:10;10.25;;;5.22;;
70444;SDS011;57902;49.638;11.070;2022-08-21T03:40:39;12.40;;;5.00;;
70444;SDS011;57902;49.638;11.070;2022-08-21T03:43:06;15.27;;;5.30;;
70444;SDS011;57902;49.638;11.070;2022-08-21T03:45:35;11.10;;;4.70;;
70444;SDS011;57902;49.638;11.070;2022-08-21T03:48:02;12.15;;;5.28;;
70444;SDS011;57902;49.638;11.070;2022-08-21T03:50:32;12.50;;;5.00;;
70444;SDS011;57902;49.638;11.070;2022-08-21T03:53:06;10.50;;;4.90;;
70444;SDS011;57902;49.638;11.070;2022-08-21T03:55:42;14.02;;;3.95;;
70444;SDS011;57902;49.638;11.070;2022-08-21T03:58:09;10.50;;;4.72;;
70444;SDS011;57902;49.638;11.070;2022-08-21T04:00:42;10.88;;;4.70;;
70444;SDS011;57902;49.638;11.070;2022-08-21T04:03:11;12.13;;;4.70;;
70444;SDS011;57902;49.638;11.070;2022-08-21T04:05:37;15.23;;;4.15;;
70444;SDS011;57902;49.638;11.070;2022-08-21T04:08:05;7.85;;;4.20;;
70444;SDS011;57902;49.638;11.070;2022-08-21T04:10:33;9.07;;;4.32;;
70444;SDS011;57902;49.638;11.070;2022-08-21T04:13:02;15.70;;;4.82;;
70444;SDS011;57902;49.638;11.070;2022-08-21T04:15:29;8.60;;;4.50;;
70444;SDS011;57902;49.638;11.070;2022-08-21T04:17:56;8.13;;;3.75;;
70444;SDS011;57902;49.638;11.070;2022-08-21T04:20:23;13.43;;;4.05;;
70444;SDS011;57902;49.638;11.070;2022-08-21T04:22:50;10.90;;;3.92;;
70444;SDS011;57902;49.638;11.070;2022-08-21T04:25:19;12.63;;;4.22;;
70444;SDS011;57902;49.638;11.070;2022-08-21T04:27:47;7.80;;;3.83;;
70444;SDS011;57902;49.638;11.070;2022-08-21T04:30:15;7.70;;;3.80;;
70444;SDS011;57902;49.638;11.070;2022-08-21T04:32:42;7.43;;;3.47;;
70444;SDS011;57902;49.638;11.070;2022-08-21T04:35:15;9.38;;;3.90;;
70444;SDS011;57902;49.638;11.070;2022-08-21T04:37:42;12.60;;;3.67;;
70444;SDS011;57902;49.638;11.070;2022-08-21T04:40:10;7.40;;;3.67;;
70444;SDS011;57902;49.638;11.070;2022-08-21T04:42:44;9.40;;;4.10;;
70444;SDS011;57902;49.638;11.070;2022-08-21T04:45:20;10.93;;;3.90;;
70444;SDS011;57902;49.638;11.070;2022-08-21T04:47:52;6.65;;;3.28;;
70444;SDS011;57902;49.638;11.070;2022-08-21T04:51:05;6.63;;;3.50;;
70444;SDS011;57902;49.638;11.070;2022-08-21T04:53:14;7.13;;;3.55;;
70444;SDS011;57902;49.638;11.070;2022-08-21T04:55:44;8.90;;;4.07;;
70444;SDS011;57902;49.638;11.070;2022-08-21T04:58:13;9.77;;;3.40;;
70444;SDS011;57902;49.638;11.070;2022-08-21T05:00:43;6.65;;;3.40;;
70444;SDS011;57902;49.638;11.070;2022-08-21T05:03:12;7.63;;;3.55;;
70444;SDS011;57902;49.638;11.070;2022-08-21T05:05:40;9.30;;;4.13;;
70444;SDS011;57902;49.638;11.070;2022-08-21T05:08:07;8.65;;;4.10;;
70444;SDS011;57902;49.638;11.070;2022-08-21T05:10:38;7.28;;;3.65;;
70444;SDS011;57902;49.638;11.070;2022-08-21T05:13:05;9.00;;;3.92;;
70444;SDS011;57902;49.638;11.070;2022-08-21T05:17:59;7.57;;;3.53;;
70444;SDS011;57902;49.638;11.070;2022-08-21T05:20:26;7.57;;;3.70;;
70444;SDS011;57902;49.638;11.070;2022-08-21T05:22:56;9.50;;;3.90;;
70444;SDS011;57902;49.638;11.070;2022-08-21T05:25:24;9.10;;;4.50;;
70444;SDS011;57902;49.638;11.070;2022-08-21T05:27:53;7.85;;;3.63;;
70444;SDS011;57902;49.638;11.070;2022-08-21T05:30:19;7.80;;;3.53;;
70444;SDS011;57902;49.638;11.070;2022-08-21T05:32:46;10.88;;;4.60;;
70444;SDS011;57902;49.638;11.070;2022-08-21T05:35:13;9.70;;;4.40;;
70444;SDS011;57902;49.638;11.070;2022-08-21T05:37:41;12.52;;;4.80;;
70444;SDS011;57902;49.638;11.070;2022-08-21T05:40:07;11.65;;;4.47;;
70444;SDS011;57902;49.638;11.070;2022-08-21T05:42:48;10.48;;;3.25;;
70444;SDS011;57902;49.638;11.070;2022-08-21T05:45:24;9.80;;;4.32;;
70444;SDS011;57902;49.638;11.070;2022-08-21T05:48:19;9.48;;;3.65;;
70444;SDS011;57902;49.638;11.070;2022-08-21T05:50:47;7.60;;;3.00;;
70444;SDS011;57902;49.638;11.070;2022-08-21T05:55:43;11.85;;;3.30;;
70444;SDS011;57902;49.638;11.070;2022-08-21T05:58:15;8.77;;;3.55;;
70444;SDS011;57902;49.638;11.070;2022-08-21T06:00:46;9.10;;;3.75;;
70444;SDS011;57902;49.638;11.070;2022-08-21T06:03:15;8.82;;;3.53;;
70444;SDS011;57902;49.638;11.070;2022-08-21T06:05:45;9.13;;;3.65;;
70444;SDS011;57902;49.638;11.070;2022-08-21T06:08:12;11.70;;;4.30;;
70444;SDS011;57902;49.638;11.070;2022-08-21T06:10:40;11.18;;;3.13;;
70444;SDS011;57902;49.638;11.070;2022-08-21T06:13:06;8.43;;;3.90;;
70444;SDS011;57902;49.638;11.070;2022-08-21T06:15:33;9.23;;;3.60;;
70444;SDS011;57902;49.638;11.070;2022-08-21T06:18:00;14.65;;;3.70;;
70444;SDS011;57902;49.638;11.070;2022-08-21T06:20:28;9.65;;;4.00;;
70444;SDS011;57902;49.638;11.070;2022-08-21T06:22:55;10.18;;;3.55;;
70444;SDS011;57902;49.638;11.070;2022-08-21T06:25:21;11.07;;;3.83;;
70444;SDS011;57902;49.638;11.070;2022-08-21T06:27:48;13.43;;;4.05;;
70444;SDS011;57902;49.638;11.070;2022-08-21T06:30:15;9.52;;;3.75;;
70444;SDS011;57902;49.638;11.070;2022-08-21T06:32:41;8.75;;;3.63;;
70444;SDS011;57902;49.638;11.070;2022-08-21T06:35:08;10.45;;;3.88;;
70444;SDS011;57902;49.638;11.070;2022-08-21T06:37:34;11.07;;;5.47;;
70444;SDS011;57902;49.638;11.070;2022-08-21T06:40:02;11.18;;;4.60;;
70444;SDS011;57902;49.638;11.070;2022-08-21T06:42:30;21.13;;;4.82;;
70444;SDS011;57902;49.638;11.070;2022-08-21T06:44:57;10.07;;;4.15;;
70444;SDS011;57902;49.638;11.070;2022-08-21T06:47:24;12.90;;;5.68;;
70444;SDS011;57902;49.638;11.070;2022-08-21T06:49:50;11.93;;;4.43;;
70444;SDS011;57902;49.638;11.070;2022-08-21T06:52:18;19.33;;;6.03;;
70444;SDS011;57902;49.638;11.070;2022-08-21T06:54:45;11.85;;;4.93;;
70444;SDS011;57902;49.638;11.070;2022-08-21T06:57:11;13.93;;;5.38;;
70444;SDS011;57902;49.638;11.070;2022-08-21T06:59:38;17.50;;;5.63;;
70444;SDS011;57902;49.638;11.070;2022-08-21T07:02:04;14.95;;;5.43;;
70444;SDS011;57902;49.638;11.070;2022-08-21T07:04:31;13.50;;;5.28;;
70444;SDS011;57902;49.638;11.070;2022-08-21T07:06:58;29.05;;;6.70;;
70444;SDS011;57902;49.638;11.070;2022-08-21T07:09:25;16.27;;;5.50;;
70444;SDS011;57902;49.638;11.070;2022-08-21T07:11:51;17.65;;;5.63;;
70444;SDS011;57902;49.638;11.070;2022-08-21T07:14:21;16.10;;;5.65;;
70444;SDS011;57902;49.638;11.070;2022-08-21T07:16:48;20.67;;;6.78;;
70444;SDS011;57902;49.638;11.070;2022-08-21T07:19:15;17.13;;;6.38;;
70444;SDS011;57902;49.638;11.070;2022-08-21T07:21:42;23.45;;;6.75;;
70444;SDS011;57902;49.638;11.070;2022-08-21T07:24:08;17.73;;;6.95;;
70444;SDS011;57902;49.638;11.070;2022-08-21T07:26:35;16.45;;;6.10;;
70444;SDS011;57902;49.638;11.070;2022-08-21T07:29:02;17.60;;;7.35;;
70444;SDS011;57902;49.638;11.070;2022-08-21T07:31:30;19.58;;;7.43;;
70444;SDS011;57902;49.638;11.070;2022-08-21T07:33:57;16.23;;;6.90;;
70444;SDS011;57902;49.638;11.070;2022-08-21T07:36:24;17.25;;;6.72;;
70444;SDS011;57902;49.638;11.070;2022-08-21T07:38:50;18.17;;;7.30;;
70444;SDS011;57902;49.638;11.070;2022-08-21T07:41:19;25.02;;;7.80;;
70444;SDS011;57902;49.638;11.070;2022-08-21T07:43:48;16.67;;;6.95;;
70444;SDS011;57902;49.638;11.070;2022-08-21T07:46:18;18.77;;;9.25;;
70444;SDS011;57902;49.638;11.070;2022-08-21T07:48:44;28.50;;;6.65;;
70444;SDS011;57902;49.638;11.070;2022-08-21T07:51:13;16.15;;;7.55;;
70444;SDS011;57902;49.638;11.070;2022-08-21T07:53:42;16.30;;;7.85;;
70444;SDS011;57902;49.638;11.070;2022-08-21T07:56:14;36.38;;;15.23;;
70444;SDS011;57902;49.638;11.070;2022-08-21T07:58:40;17.67;;;8.35;;
70444;SDS011;57902;49.638;11.070;2022-08-21T08:01:07;18.67;;;8.68;;
70444;SDS011;57902;49.638;11.070;2022-08-21T08:03:34;18.42;;;8.88;;
70444;SDS011;57902;49.638;11.070;2022-08-21T08:06:00;17.20;;;8.75;;
70444;SDS011;57902;49.638;11.070;2022-08-21T08:08:27;22.40;;;9.40;;
70444;SDS011;57902;49.638;11.070;2022-08-21T08:10:53;18.52;;;8.27;;
70444;SDS011;57902;49.638;11.070;2022-08-21T08:13:22;17.20;;;8.40;;
70444;SDS011;57902;49.638;11.070;2022-08-21T08:15:49;17.35;;;8.20;;
70444;SDS011;57902;49.638;11.070;2022-08-21T08:18:15;21.70;;;8.25;;
70444;SDS011;57902;49.638;11.070;2022-08-21T08:20:42;18.27;;;7.97;;
70444;SDS011;57902;49.638;11.070;2022-08-21T08:23:12;19.27;;;8.50;;
70444;SDS011;57902;49.638;11.070;2022-08-21T08:25:39;32.88;;;9.48;;
70444;SDS011;57902;49.638;11.070;2022-08-21T08:28:06;17.75;;;8.45;;
70444;SDS011;57902;49.638;11.070;2022-08-21T08:30:43;20.25;;;9.20;;
70444;SDS011;57902;49.638;11.070;2022-08-21T08:33:13;18.50;;;9.30;;
70444;SDS011;57902;49.638;11.070;2022-08-21T08:38:08;19.63;;;8.85;;
70444;SDS011;57902;49.638;11.070;2022-08-21T08:40:39;20.50;;;9.30;;
70444;SDS011;57902;49.638;11.070;2022-08-21T08:43:12;19.98;;;9.82;;
70444;SDS011;57902;49.638;11.070;2022-08-21T08:48:10;16.75;;;9.23;;
70444;SDS011;57902;49.638;11.070;2022-08-21T08:50:45;21.23;;;9.75;;
70444;SDS011;57902;49.638;11.070;2022-08-21T08:53:16;18.67;;;10.23;;
70444;SDS011;57902;49.638;11.070;2022-08-21T08:55:50;19.95;;;11.05;;
70444;SDS011;57902;49.638;11.070;2022-08-21T08:58:21;21.77;;;10.18;;
70444;SDS011;57902;49.638;11.070;2022-08-21T09:00:51;19.23;;;10.52;;
70444;SDS011;57902;49.638;11.070;2022-08-21T09:03:19;18.83;;;10.57;;
70444;SDS011;57902;49.638;11.070;2022-08-21T09:05:50;18.98;;;10.40;;
70444;SDS011;57902;49.638;11.070;2022-08-21T09:11:20;18.85;;;9.73;;
70444;SDS011;57902;49.638;11.070;2022-08-21T09:19:46;18.60;;;10.20;;
70444;SDS011;57902;49.638;11.070;2022-08-21T09:22:24;18.67;;;10.85;;
70444;SDS011;57902;49.638;11.070;2022-08-21T09:27:26;20.15;;;10.18;;
70444;SDS011;57902;49.638;11.070;2022-08-21T09:29:53;21.23;;;11.55;;
70444;SDS011;57902;49.638;11.070;2022-08-21T09:32:24;18.90;;;11.07;;
70444;SDS011;57902;49.638;11.070;2022-08-21T09:43:00;18.33;;;10.63;;
70444;SDS011;57902;49.638;11.070;2022-08-21T09:45:30;23.98;;;11.65;;
70444;SDS011;57902;49.638;11.070;2022-08-21T09:48:12;23.15;;;11.50;;
70444;SDS011;57902;49.638;11.070;2022-08-21T09:50:39;17.77;;;10.02;;
70444;SDS011;57902;49.638;11.070;2022-08-21T09:53:14;21.88;;;10.85;;
70444;SDS011;57902;49.638;11.070;2022-08-21T09:56:03;20.05;;;10.52;;
70444;SDS011;57902;49.638;11.070;2022-08-21T09:59:00;20.83;;;11.27;;
70444;SDS011;57902;49.638;11.070;2022-08-21T10:01:27;20.50;;;11.07;;
70444;SDS011;57902;49.638;11.070;2022-08-21T10:04:03;19.88;;;10.63;;
70444;SDS011;57902;49.638;11.070;2022-08-21T10:06:33;17.70;;;10.35;;
70444;SDS011;57902;49.638;11.070;2022-08-21T10:09:15;20.48;;;10.57;;
70444;SDS011;57902;49.638;11.070;2022-08-21T10:11:58;17.67;;;9.98;;
70444;SDS011;57902;49.638;11.070;2022-08-21T10:17:26;17.15;;;10.55;;
70444;SDS011;57902;49.638;11.070;2022-08-21T10:20:08;18.85;;;10.73;;
70444;SDS011;57902;49.638;11.070;2022-08-21T10:22:43;18.73;;;11.45;;
70444;SDS011;57902;49.638;11.070;2022-08-21T10:25:40;21.80;;;10.88;;
70444;SDS011;57902;49.638;11.070;2022-08-21T10:48:04;15.65;;;9.52;;
70444;SDS011;57902;49.638;11.070;2022-08-21T10:50:52;17.45;;;10.07;;
70444;SDS011;57902;49.638;11.070;2022-08-21T10:55:56;15.93;;;10.02;;
70444;SDS011;57902;49.638;11.070;2022-08-21T10:58:29;15.23;;;9.98;;
70444;SDS011;57902;49.638;11.070;2022-08-21T11:01:19;40.92;;;11.05;;
70444;SDS011;57902;49.638;11.070;2022-08-21T11:06:41;18.52;;;9.27;;
70444;SDS011;57902;49.638;11.070;2022-08-21T11:09:18;15.05;;;8.27;;
70444;SDS011;57902;49.638;11.070;2022-08-21T11:11:56;13.18;;;8.18;;
70444;SDS011;57902;49.638;11.070;2022-08-21T11:17:24;14.68;;;7.63;;
70444;SDS011;57902;49.638;11.070;2022-08-21T11:22:40;13.40;;;7.70;;
70444;SDS011;57902;49.638;11.070;2022-08-21T11:25:21;11.77;;;7.20;;
70444;SDS011;57902;49.638;11.070;2022-08-21T11:28:10;11.73;;;7.32;;
70444;SDS011;57902;49.638;11.070;2022-08-21T11:36:36;9.85;;;5.72;;
70444;SDS011;57902;49.638;11.070;2022-08-21T11:39:26;10.93;;;4.80;;
70444;SDS011;57902;49.638;11.070;2022-08-21T11:42:17;8.60;;;5.15;;
70444;SDS011;57902;49.638;11.070;2022-08-21T11:45:03;9.23;;;5.78;;
70444;SDS011;57902;49.638;11.070;2022-08-21T11:50:56;10.90;;;4.22;;
70444;SDS011;57902;49.638;11.070;2022-08-21T12:01:19;9.02;;;4.40;;
70444;SDS011;57902;49.638;11.070;2022-08-21T12:03:53;8.63;;;4.68;;
70444;SDS011;57902;49.638;11.070;2022-08-21T12:06:28;9.88;;;4.63;;
70444;SDS011;57902;49.638;11.070;2022-08-21T12:09:02;9.32;;;4.20;;
70444;SDS011;57902;49.638;11.070;2022-08-21T12:11:46;11.48;;;4.22;;
70444;SDS011;57902;49.638;11.070;2022-08-21T12:14:15;9.07;;;3.80;;
70444;SDS011;57902;49.638;11.070;2022-08-21T12:16:45;7.40;;;4.10;;
70444;SDS011;57902;49.638;11.070;2022-08-21T12:19:16;9.85;;;4.10;;
70444;SDS011;57902;49.638;11.070;2022-08-21T12:27:20;7.80;;;4.07;;
70444;SDS011;57902;49.638;11.070;2022-08-21T12:29:57;6.65;;;3.72;;
70444;SDS011;57902;49.638;11.070;2022-08-21T12:32:29;7.65;;;3.30;;
70444;SDS011;57902;49.638;11.070;2022-08-21T12:35:16;6.45;;;3.30;;
70444;SDS011;57902;49.638;11.070;2022-08-21T12:37:59;10.35;;;4.10;;
70444;SDS011;57902;49.638;11.070;2022-08-21T12:40:43;9.68;;;3.67;;
70444;SDS011;57902;49.638;11.070;2022-08-21T12:43:23;11.00;;;3.72;;
70444;SDS011;57902;49.638;11.070;2022-08-21T12:45:56;6.00;;;2.92;;
70444;SDS011;57902;49.638;11.070;2022-08-21T12:48:28;5.38;;;2.67;;
70444;SDS011;57902;49.638;11.070;2022-08-21T12:51:10;7.50;;;2.80;;
70444;SDS011;57902;49.638;11.070;2022-08-21T12:53:44;6.90;;;3.33;;
70444;SDS011;57902;49.638;11.070;2022-08-21T12:56:13;6.32;;;3.45;;
70444;SDS011;57902;49.638;11.070;2022-08-21T12:58:46;5.70;;;3.03;;
70444;SDS011;57902;49.638;11.070;2022-08-21T13:01:24;8.15;;;3.25;;
70444;SDS011;57902;49.638;11.070;2022-08-21T13:03:55;8.43;;;3.30;;
70444;SDS011;57902;49.638;11.070;2022-08-21T13:06:36;8.13;;;3.20;;
70444;SDS011;57902;49.638;11.070;2022-08-21T13:09:05;6.32;;;3.05;;
70444;SDS011;57902;49.638;11.070;2022-08-21T13:11:34;6.38;;;3.08;;
70444;SDS011;57902;49.638;11.070;2022-08-21T13:14:06;6.90;;;3.42;;
70444;SDS011;57902;49.638;11.070;2022-08-21T13:16:44;6.93;;;3.30;;
70444;SDS011;57902;49.638;11.070;2022-08-21T13:19:11;8.90;;;3.60;;
70444;SDS011;57902;49.638;11.070;2022-08-21T13:21:49;7.53;;;3.55;;
70444;SDS011;57902;49.638;11.070;2022-08-21T13:24:25;7.70;;;3.72;;
70444;SDS011;57902;49.638;11.070;2022-08-21T13:27:19;8.93;;;3.67;;
70444;SDS011;57902;49.638;11.070;2022-08-21T13:32:49;7.75;;;3.60;;
70444;SDS011;57902;49.638;11.070;2022-08-21T13:35:24;7.45;;;3.60;;
70444;SDS011;57902;49.638;11.070;2022-08-21T13:37:54;8.45;;;3.20;;
70444;SDS011;57902;49.638;11.070;2022-08-21T13:40:26;6.07;;;3.17;;
70444;SDS011;57902;49.638;11.070;2022-08-21T13:42:55;6.03;;;2.83;;
70444;SDS011;57902;49.638;11.070;2022-08-21T13:45:29;6.10;;;2.90;;
70444;SDS011;57902;49.638;11.070;2022-08-21T13:47:57;6.10;;;3.00;;
70444;SDS011;57902;49.638;11.070;2022-08-21T13:50:31;6.13;;;3.20;;
70444;SDS011;57902;49.638;11.070;2022-08-21T13:53:02;6.80;;;3.38;;
70444;SDS011;57902;49.638;11.070;2022-08-21T13:55:39;5.00;;;2.63;;
70444;SDS011;57902;49.638;11.070;2022-08-21T13:58:08;4.50;;;2.40;;
70444;SDS011;57902;49.638;11.070;2022-08-21T14:00:44;5.75;;;3.00;;
70444;SDS011;57902;49.638;11.070;2022-08-21T14:03:38;6.22;;;2.90;;
70444;SDS011;57902;49.638;11.070;2022-08-21T14:06:11;5.78;;;2.50;;
70444;SDS011;57902;49.638;11.070;2022-08-21T14:08:40;4.60;;;2.13;;
70444;SDS011;57902;49.638;11.070;2022-08-21T14:11:12;4.78;;;2.40;;
70444;SDS011;57902;49.638;11.070;2022-08-21T14:13:43;3.97;;;2.13;;
70444;SDS011;57902;49.638;11.070;2022-08-21T14:16:17;6.13;;;2.55;;
70444;SDS011;57902;49.638;11.070;2022-08-21T14:19:08;7.10;;;2.35;;
70444;SDS011;57902;49.638;11.070;2022-08-21T14:21:36;4.93;;;2.28;;
70444;SDS011;57902;49.638;11.070;2022-08-21T14:24:12;6.05;;;2.17;;
70444;SDS011;57902;49.638;11.070;2022-08-21T14:26:51;8.98;;;2.55;;
70444;SDS011;57902;49.638;11.070;2022-08-21T14:29:20;4.57;;;2.03;;
70444;SDS011;57902;49.638;11.070;2022-08-21T14:31:52;4.88;;;2.40;;
70444;SDS011;57902;49.638;11.070;2022-08-21T14:34:22;4.80;;;2.10;;
70444;SDS011;57902;49.638;11.070;2022-08-21T14:36:51;4.18;;;2.05;;
70444;SDS011;57902;49.638;11.070;2022-08-21T14:39:18;4.35;;;2.08;;
70444;SDS011;57902;49.638;11.070;2022-08-21T14:41:45;6.03;;;2.33;;
70444;SDS011;57902;49.638;11.070;2022-08-21T14:44:14;10.23;;;2.65;;
70444;SDS011;57902;49.638;11.070;2022-08-21T14:46:43;5.03;;;2.10;;
70444;SDS011;57902;49.638;11.070;2022-08-21T14:49:23;5.53;;;2.35;;
70444;SDS011;57902;49.638;11.070;2022-08-21T14:51:53;7.95;;;2.50;;
70444;SDS011;57902;49.638;11.070;2022-08-21T14:54:26;5.68;;;2.53;;
70444;SDS011;57902;49.638;11.070;2022-08-21T14:56:57;4.97;;;2.45;;
70444;SDS011;57902;49.638;11.070;2022-08-21T14:59:26;5.25;;;2.40;;
70444;SDS011;57902;49.638;11.070;2022-08-21T15:01:53;4.22;;;2.10;;
70444;SDS011;57902;49.638;11.070;2022-08-21T15:04:20;5.95;;;2.47;;
70444;SDS011;57902;49.638;11.070;2022-08-21T15:06:46;5.70;;;2.50;;
70444;SDS011;57902;49.638;11.070;2022-08-21T15:09:13;4.43;;;2.30;;
70444;SDS011;57902;49.638;11.070;2022-08-21T15:11:39;4.43;;;2.20;;
70444;SDS011;57902;49.638;11.070;2022-08-21T15:14:08;6.53;;;2.45;;
70444;SDS011;57902;49.638;11.070;2022-08-21T15:16:40;17.10;;;3.00;;
70444;SDS011;57902;49.638;11.070;2022-08-21T15:19:06;11.80;;;2.70;;
70444;SDS011;57902;49.638;11.070;2022-08-21T15:21:33;7.25;;;2.80;;
70444;SDS011;57902;49.638;11.070;2022-08-21T15:23:59;4.97;;;2.13;;
70444;SDS011;57902;49.638;11.070;2022-08-21T15:26:26;5.35;;;2.08;;
70444;SDS011;57902;49.638;11.070;2022-08-21T15:28:53;4.70;;;2.10;;
70444;SDS011;57902;49.638;11.070;2022-08-21T15:31:19;5.80;;;2.30;;
70444;SDS011;57902;49.638;11.070;2022-08-21T15:33:45;4.78;;;2.20;;
70444;SDS011;57902;49.638;11.070;2022-08-21T15:36:12;4.57;;;2.20;;
70444;SDS011;57902;49.638;11.070;2022-08-21T15:38:39;4.05;;;1.92;;
70444;SDS011;57902;49.638;11.070;2022-08-21T15:41:05;8.15;;;2.47;;
70444;SDS011;57902;49.638;11.070;2022-08-21T15:43:39;4.10;;;2.08;;
70444;SDS011;57902;49.638;11.070;2022-08-21T15:46:09;9.57;;;2.45;;
70444;SDS011;57902;49.638;11.070;2022-08-21T15:48:38;3.70;;;1.90;;
70444;SDS011;57902;49.638;11.070;2022-08-21T15:51:04;4.78;;;1.92;;
70444;SDS011;57902;49.638;11.070;2022-08-21T15:53:31;5.95;;;2.33;;
70444;SDS011;57902;49.638;11.070;2022-08-21T15:56:01;3.85;;;1.90;;
70444;SDS011;57902;49.638;11.070;2022-08-21T15:58:28;4.82;;;1.92;;
70444;SDS011;57902;49.638;11.070;2022-08-21T16:00:55;5.35;;;2.00;;
70444;SDS011;57902;49.638;11.070;2022-08-21T16:03:25;4.32;;;1.90;;
70444;SDS011;57902;49.638;11.070;2022-08-21T16:05:52;3.15;;;1.80;;
70444;SDS011;57902;49.638;11.070;2022-08-21T16:08:19;4.97;;;2.00;;
70444;SDS011;57902;49.638;11.070;2022-08-21T16:10:47;21.70;;;2.92;;
70444;SDS011;57902;49.638;11.070;2022-08-21T16:13:26;5.15;;;2.15;;
70444;SDS011;57902;49.638;11.070;2022-08-21T16:15:55;8.68;;;2.50;;
70444;SDS011;57902;49.638;11.070;2022-08-21T16:18:21;5.15;;;1.98;;
70444;SDS011;57902;49.638;11.070;2022-08-21T16:20:49;6.53;;;2.40;;